Latest Weather Observations for Warburton

IDD60801

Issued at 4:31 pm CST Wednesday 4 March 2015 (issued every 30 minutes, with the page automatically refreshed every 10 minutes)

About weather observations | Map of weather stations | Latest weather observations for NT | Other Formats
Station Details ID: 013011 Name: WARBURTON AIRFIELD Lat: -26.13 Lon: 126.58 Height: 459.0 m
Data from the previous 72 hours. | See also: Recent months at Warburton
Date/Time
CST
Temp
°C
App
Temp
°C
Dew
Point
Rel
Hum
%
Delta-T
°C
Wind Press
QNH
hPa
Press
MSL
hPa
Rain
since 9 am
mm
Dir
 
Spd
km/h
Gust
km/h
Spd
kts
Gust
kts
04/04:30pm 35.4 31.6 12.4 25 14.1 SE 24 35 13 19 1013.6 1010.6 0.0
04/04:00pm 35.3 31.3 12.9 26 13.8 SE 26 37 14 20 1013.7 - 0.0
04/03:30pm 34.6 31.5 13.4 28 13.1 SSE 22 33 12 18 1013.9 - 0.0
04/03:00pm 34.3 30.6 12.6 27 13.3 SE 24 35 13 19 1014.4 - 0.0
04/02:30pm 33.1 29.9 13.2 30 12.2 ESE 22 39 12 21 1014.8 - 0.0
04/02:00pm 32.3 28.7 13.0 31 11.8 ESE 24 39 13 21 1015.2 - 0.0
04/01:30pm 31.5 28.0 13.3 33 11.1 ESE 24 37 13 20 1015.6 1012.6 0.0
04/01:00pm 30.7 26.7 13.0 33 10.7 E 26 43 14 23 1016.1 - 0.0
04/12:30pm 29.3 24.6 13.1 37 9.8 SE 30 43 16 23 1016.5 - 0.0
04/12:00pm 28.6 25.1 13.3 39 9.2 ESE 24 33 13 18 1017.0 - 0.0
04/11:30am 27.1 23.4 13.8 44 8.0 SE 26 35 14 19 1017.3 - 0.0
04/11:00am 26.1 22.3 13.6 46 7.5 SE 26 37 14 20 1017.5 - 0.0
04/10:39am 25.1 20.6 13.9 49 6.7 ESE 30 48 16 26 1017.7 - 0.0
04/10:30am 25.1 20.6 13.9 49 6.7 ESE 30 39 16 21 1017.7 1014.7 0.0
04/10:00am 23.9 19.1 14.0 54 5.9 ESE 32 41 17 22 1017.4 - 0.0
04/09:30am 22.3 17.9 14.2 60 4.8 SE 30 39 16 21 1017.4 - 0.0
04/09:00am 21.5 17.1 14.2 63 4.3 SE 30 39 16 21 1017.4 - 0.0
04/08:30am 21.2 16.9 14.4 65 4.1 SE 30 41 16 22 1017.1 - 0.0
04/08:00am 20.4 16.8 14.3 68 3.6 SE 26 33 14 18 1016.5 - 0.0
04/07:30am 20.1 17.6 14.2 69 3.5 SE 20 30 11 16 1016.2 1013.2 0.0
04/07:00am 20.0 16.9 14.4 70 3.3 SE 24 35 13 19 1015.8 - 0.0
04/06:30am 20.2 16.3 14.3 69 3.5 ESE 28 39 15 21 1015.4 - 0.0
04/06:00am 20.3 16.3 14.2 68 3.6 SE 28 39 15 21 1015.4 - 0.0
04/05:30am 20.4 16.8 14.3 68 3.6 SE 26 35 14 19 1015.1 - 0.0
04/05:00am 20.5 17.3 14.2 67 3.7 SE 24 35 13 19 1015.0 - 0.0
04/04:30am 20.6 16.6 14.0 66 3.9 SE 28 37 15 20 1015.0 1011.9 0.0
04/04:00am 20.7 16.7 14.1 66 3.9 SE 28 39 15 21 1014.8 - 0.0
04/03:30am 20.8 16.8 14.2 66 3.9 SE 28 39 15 21 1014.8 - 0.0
04/03:00am 20.7 17.6 14.4 67 3.7 SE 24 33 13 18 1015.2 - 0.0
04/02:30am 20.7 17.2 14.4 67 3.7 SSE 26 35 14 19 1015.6 - 0.0
04/02:00am 20.7 17.2 14.6 68 3.6 SE 26 37 14 20 1016.0 - 0.0
04/01:30am 20.7 16.9 14.6 68 3.6 SE 28 37 15 20 1016.2 1013.2 0.0
04/01:00am 20.7 16.9 14.6 68 3.6 SE 28 41 15 22 1016.4 - 0.0
04/12:30am 20.9 17.0 14.5 67 3.8 SE 28 39 15 21 1016.7 - 0.0
04/12:08am 21.1 16.9 14.7 67 3.8 SE 30 48 16 26 1016.7 - 0.0
04/12:00am 21.1 16.5 14.7 67 3.8 SE 32 48 17 26 1016.7 - 0.0
 
Date/Time
CST
Temp
°C
App
Temp
°C
Dew
Point
Rel
Hum
%
Delta-T
°C
Wind Press
QNH
hPa
Press
MSL
hPa
Rain
since 9 am
mm
Dir
 
Spd
km/h
Gust
km/h
Spd
kts
Gust
kts
03/11:57pm 21.2 17.4 14.6 66 3.9 SE 28 48 15 26 1016.7 - 0.0
03/11:30pm 21.5 17.5 15.1 67 3.9 SE 30 43 16 23 1016.6 - 0.0
03/11:00pm 21.9 17.4 15.3 66 4.0 SE 33 44 18 24 1016.7 - 0.0
03/10:50pm 21.9 18.2 15.0 65 4.2 SSE 28 52 15 28 1016.7 - 0.0
03/10:30pm 22.2 17.6 15.1 64 4.3 SE 33 44 18 24 1016.6 1013.6 0.0
03/10:09pm 22.4 18.8 15.3 64 4.3 SSE 28 48 15 26 1016.6 - 0.0
03/10:00pm 22.4 18.8 15.3 64 4.3 SSE 28 37 15 20 1016.6 - 0.0
03/09:30pm 22.7 19.5 15.3 63 4.5 SSE 26 37 14 20 1016.5 - 0.0
03/09:00pm 22.8 19.3 15.4 63 4.5 SSE 28 41 15 22 1016.2 - 0.0
03/08:30pm 22.9 19.3 15.2 62 4.7 SSE 28 37 15 20 1015.9 - 0.0
03/08:00pm 22.9 19.3 15.2 62 4.7 SSE 28 37 15 20 1015.5 - 0.0
03/07:30pm 23.2 19.2 15.3 61 4.8 SSE 30 43 16 23 1015.3 1012.2 0.0
03/07:00pm 23.5 20.0 15.5 60 4.9 SSE 28 39 15 21 1015.1 - 0.0
03/06:30pm 23.7 19.5 15.7 61 4.9 SSE 32 39 17 21 1014.9 - 0.0
03/06:00pm 23.9 20.5 15.9 61 4.9 SSE 28 41 15 22 1014.9 - 0.0
03/05:30pm 24.6 21.7 16.1 59 5.3 SSE 26 44 14 24 1014.7 - 0.0
03/05:00pm 25.6 22.6 15.9 55 6.0 S 26 33 14 18 1014.7 - 0.0
03/04:30pm 26.0 22.7 16.0 54 6.2 S 28 39 15 21 1014.1 1011.1 0.0
03/04:00pm 27.3 24.4 15.0 47 7.6 S 24 32 13 17 1014.0 - 0.0
03/03:30pm 27.4 24.9 15.1 47 7.6 SSE 22 30 12 16 1013.9 - 0.0
03/03:00pm 27.0 24.3 15.7 50 7.0 S 24 33 13 18 1014.1 - 0.0
03/02:30pm 27.4 25.6 15.4 48 7.5 SE 19 28 10 15 1014.4 - 0.0
03/02:00pm 28.0 25.8 15.0 45 8.0 SE 20 32 11 17 1014.6 - 0.0
03/01:30pm 27.7 24.6 15.7 48 7.5 SE 26 35 14 19 1014.3 1011.3 0.0
03/01:00pm 26.6 24.6 16.5 54 6.4 ESE 22 32 12 17 1014.9 - 0.0
03/12:30pm 25.5 23.7 16.1 56 5.9 SSE 20 30 11 16 1015.0 - 0.0
03/12:00pm 24.4 22.8 16.4 61 5.0 SSE 20 28 11 15 1015.3 - 0.0
03/11:30am 23.5 21.5 16.5 65 4.4 SSE 22 28 12 15 1015.4 - 0.0
03/11:00am 22.8 21.9 16.8 69 3.7 SE 17 28 9 15 1015.5 - 0.0
03/10:30am 22.2 20.3 16.7 71 3.4 SE 22 28 12 15 1015.7 1012.7 2.4
03/10:00am 21.8 20.4 17.0 74 3.0 SE 20 28 11 15 1015.9 - 2.4
03/09:30am 21.2 19.5 17.2 78 2.5 SE 22 30 12 16 1015.9 - 2.4
03/09:00am 20.8 20.0 18.0 84 1.8 SSE 19 24 10 13 1015.6 - 2.4
03/08:30am 20.5 18.9 17.5 83 1.9 SE 22 30 12 16 1015.9 - 2.4
03/08:00am 20.6 19.6 18.0 85 1.6 SSE 20 26 11 14 1015.8 - 2.4
03/07:30am 20.6 20.6 18.2 86 1.5 SSE 15 20 8 11 1015.5 1012.5 2.4
03/07:00am 20.6 20.7 18.4 87 1.4 SE 15 20 8 11 1015.0 - 2.4
03/06:30am 20.7 20.5 18.5 87 1.4 SE 17 22 9 12 1014.6 - 2.4
03/06:00am 20.9 21.0 18.3 85 1.7 SE 15 19 8 10 1014.2 - 2.4
03/05:30am 20.9 20.7 18.5 86 1.5 ESE 17 22 9 12 1014.0 - 2.4
03/05:00am 20.9 20.8 18.8 88 1.3 SE 17 20 9 11 1013.9 - 2.4
03/04:30am 20.6 21.5 19.3 92 0.8 SSE 13 19 7 10 1013.7 1010.7 2.4
03/04:00am 20.7 21.1 19.0 90 1.1 S 15 20 8 11 1013.7 - 2.4
03/03:30am 21.1 21.5 18.9 87 1.4 S 15 20 8 11 1013.6 - 2.4
03/03:00am 21.4 22.0 18.6 84 1.8 SE 13 17 7 9 1013.8 - 2.4
03/02:30am 21.3 21.1 18.5 84 1.8 ESE 17 24 9 13 1013.7 - 2.4
03/02:00am 21.3 21.2 18.7 85 1.7 SE 17 24 9 13 1013.9 - 2.4
03/01:30am 21.3 20.9 18.9 86 1.5 SE 19 28 10 15 1013.6 1010.6 2.4
03/01:00am 21.2 20.7 19.1 88 1.4 SSE 20 28 11 15 1013.9 - 2.4
03/12:30am 21.3 21.6 19.6 90 1.1 S 17 24 9 13 1014.4 - 2.4
03/12:00am 22.3 21.4 19.1 82 2.1 SSW 22 33 12 18 1014.0 - 2.4
 
Date/Time
CST
Temp
°C
App
Temp
°C
Dew
Point
Rel
Hum
%
Delta-T
°C
Wind Press
QNH
hPa
Press
MSL
hPa
Rain
since 9 am
mm
Dir
 
Spd
km/h
Gust
km/h
Spd
kts
Gust
kts
02/11:30pm 23.5 23.4 19.6 79 2.5 SSE 19 28 10 15 1013.7 - 2.4
02/11:00pm 23.3 23.5 20.1 82 2.1 SSE 19 24 10 13 1014.2 - 2.4
02/10:30pm 23.6 23.9 20.3 82 2.2 SE 19 24 10 13 1014.7 1011.6 2.2
02/10:00pm 25.6 26.9 19.3 68 4.1 ESE 11 15 6 8 1014.6 - 1.0
02/09:30pm 27.4 26.3 17.3 54 6.5 SE 19 28 10 15 1013.4 - 0.8
02/09:00pm 27.7 27.5 17.5 53 6.5 SSE 15 20 8 11 1012.5 - 0.8
02/08:30pm 27.7 26.9 18.1 56 6.2 SE 19 28 10 15 1011.5 - 0.8
02/08:00pm 27.8 27.0 18.5 57 6.1 E 20 28 11 15 1011.5 - 0.8
02/07:30pm 28.9 28.0 17.7 50 7.2 SE 19 24 10 13 1010.2 1007.1 0.8
02/07:00pm 29.6 29.1 17.8 49 7.6 SE 17 24 9 13 1009.6 - 0.8
02/06:30pm 29.6 28.5 17.8 49 7.6 SSE 20 26 11 14 1008.8 - 0.8
02/06:00pm 29.1 29.1 19.7 57 6.2 SSE 19 24 10 13 1008.5 - 0.8
02/05:30pm 27.7 27.2 19.0 59 5.7 SSW 20 28 11 15 1009.0 - 0.8
02/05:29pm 27.8 27.3 19.1 59 5.7 SSW 20 28 11 15 1009.0 - 0.8
02/05:00pm 32.8 30.0 15.3 34 11.1 SSW 24 32 13 17 1008.3 - 0.4
02/04:30pm 33.7 29.9 15.7 34 11.5 SSW 30 39 16 21 1007.3 1004.2 0.4
02/04:00pm 35.0 32.9 16.3 32 12.1 SSW 22 33 12 18 1007.4 - 0.4
02/03:30pm 34.4 32.9 16.3 34 11.7 SSW 19 28 10 15 1007.9 - 0.4
02/03:00pm 34.8 32.7 17.1 35 11.5 S 24 39 13 21 1007.4 - 0.4
02/02:30pm 33.3 33.8 20.1 45 8.9 SW 17 20 9 11 1007.8 - 0.2
02/02:01pm 33.3 30.7 17.9 40 10.1 W 28 46 15 25 1008.3 - 0.0
02/02:00pm 35.7 33.9 16.9 32 12.3 W 22 35 12 19 1008.1 - 0.0
02/01:30pm 36.1 34.0 16.3 31 12.8 SW 22 32 12 17 1008.2 1005.1 0.0
02/01:00pm 37.2 35.1 16.2 29 13.6 W 22 30 12 16 1008.6 - 0.0
02/12:30pm 36.7 35.0 15.8 29 13.5 WNW 19 28 10 15 1009.1 - 0.0
02/12:00pm 36.0 35.2 15.2 29 13.3 WNW 13 20 7 11 1009.5 - 0.0
02/11:30am 34.7 34.8 15.6 32 12.2 W 9 15 5 8 1010.0 - 0.0
02/11:00am 33.4 34.0 15.8 34 11.2 WNW 7 13 4 7 1010.4 - 0.0
02/10:30am 32.4 33.4 15.4 36 10.8 NW 4 11 2 6 1010.5 1007.4 0.2
02/10:00am 31.0 32.3 16.2 41 9.4 NNE 4 7 2 4 1010.4 - 0.2
02/09:30am 29.4 30.2 15.9 44 8.5 ESE 6 9 3 5 1010.4 - 0.2
02/09:00am 27.8 28.5 16.1 49 7.4 SSE 7 11 4 6 1010.1 - 0.2
02/08:30am 26.9 27.3 16.2 52 6.7 SE 9 15 5 8 1009.4 - 0.2
02/08:00am 25.6 25.2 16.2 56 5.9 SSW 13 19 7 10 1009.6 - 0.0
02/07:30am 24.6 25.8 16.8 62 4.9 SSE 6 7 3 4 1009.0 1005.9 0.0
02/07:00am 24.3 25.2 16.6 62 4.8 ESE 7 9 4 5 1008.7 - 0.0
02/06:30am 24.6 25.4 16.3 60 5.2 SSE 7 9 4 5 1008.5 - 0.0
02/06:00am 25.0 25.3 15.9 57 5.6 E 9 13 5 7 1008.2 - 0.0
02/05:30am 25.1 25.7 15.7 56 5.8 ESE 7 11 4 6 1008.2 - 0.0
02/05:00am 25.4 25.6 15.7 55 6.0 ESE 9 17 5 9 1008.1 - 0.0
02/04:30am 25.8 25.3 15.8 54 6.2 ESE 13 17 7 9 1008.3 1005.2 0.0
02/04:00am 25.6 25.6 16.2 56 5.9 ESE 11 17 6 9 1008.3 - 0.0
02/03:30am 25.7 25.8 16.5 56 5.8 ESE 11 13 6 7 1008.5 - 0.0
02/03:00am 25.8 25.9 16.6 56 5.8 ESE 11 15 6 8 1008.9 - 0.0
02/02:30am 26.2 26.0 16.7 56 6.0 ESE 13 19 7 10 1009.2 - 0.0
02/02:00am 26.4 26.4 17.2 57 5.9 SE 13 17 7 9 1009.7 - 0.0
02/01:30am 26.4 27.0 17.7 58 5.6 SE 11 19 6 10 1010.1 1007.0 0.0
02/01:00am 26.4 25.9 17.7 58 5.6 ESE 17 26 9 14 1010.5 - 0.0
02/12:30am 26.3 26.4 19.2 65 4.6 ESE 17 24 9 13 1011.0 - 0.0
02/12:00am 27.3 26.5 18.0 56 6.0 E 19 28 10 15 1011.7 - 0.0
 
Date/Time
CST
Temp
°C
App
Temp
°C
Dew
Point
Rel
Hum
%
Delta-T
°C
Wind Press
QNH
hPa
Press
MSL
hPa
Rain
since 9 am
mm
Dir
 
Spd
km/h
Gust
km/h
Spd
kts
Gust
kts
01/11:30pm 28.6 27.0 16.5 48 7.7 ESE 20 28 11 15 1011.1 - 0.0
01/11:00pm 28.9 27.0 16.8 48 7.7 ESE 22 32 12 17 1010.8 - 0.0
01/10:30pm 29.3 26.9 16.5 46 8.1 ESE 24 35 13 19 1010.7 1007.6 0.0
01/10:00pm 29.7 28.3 16.5 45 8.4 SE 19 26 10 14 1010.8 - 0.0
01/09:30pm 29.9 28.4 16.7 45 8.4 SE 20 30 11 16 1010.5 - 0.0
01/09:00pm 30.4 28.9 16.8 44 8.7 SE 20 30 11 16 1010.2 - 0.0
01/08:30pm 31.0 29.1 16.6 42 9.2 SE 22 32 12 17 1009.6 - 0.0
01/08:00pm 31.4 29.1 16.6 41 9.5 SE 24 30 13 16 1009.3 - 0.0
01/07:30pm 31.9 30.4 16.2 38 10.0 SE 19 26 10 14 1009.1 1006.0 0.0
01/07:00pm 32.8 31.2 16.6 38 10.4 SE 20 30 11 16 1009.1 - 0.0
01/06:30pm 33.3 31.9 16.6 36 10.8 SE 19 32 10 17 1009.1 - 0.0

Other Formats:

Comma delimited format used in spreadsheet applications
http://www.bom.gov.au/fwo/IDD60801/IDD60801.94457.axf

JavaScript Object Notation format (JSON) in row-major order
http://www.bom.gov.au/fwo/IDD60801/IDD60801.94457.json